createdAt,value
2019-03-24T00:02:07.937Z,86.10
2019-03-24T00:04:38.478Z,85.60
2019-03-24T00:07:08.910Z,85.70
2019-03-24T00:09:40.673Z,86.60
2019-03-24T00:12:11.031Z,86.10
2019-03-24T00:14:42.379Z,86.70
2019-03-24T00:17:12.762Z,86.70
2019-03-24T00:19:43.051Z,86.90
2019-03-24T00:22:13.503Z,87.20
2019-03-24T00:24:43.802Z,86.80
2019-03-24T00:27:14.194Z,86.70
2019-03-24T00:29:44.542Z,86.50
2019-03-24T00:32:15.059Z,85.90
2019-03-24T00:34:45.351Z,86.50
2019-03-24T00:37:15.748Z,86.50
2019-03-24T00:39:46.191Z,87.50
2019-03-24T00:42:16.486Z,87.80
2019-03-24T00:44:46.862Z,88.00
2019-03-24T00:47:17.239Z,88.40
2019-03-24T00:49:47.700Z,89.00
2019-03-24T00:52:18.003Z,89.00
2019-03-24T00:54:48.379Z,88.60
2019-03-24T00:57:18.743Z,88.30
2019-03-24T00:59:49.186Z,87.60
2019-03-24T01:02:19.844Z,87.10
2019-03-24T01:04:50.304Z,87.40
2019-03-24T01:07:20.833Z,87.40
2019-03-24T01:09:51.321Z,88.40
2019-03-24T01:12:22.759Z,88.60
2019-03-24T01:14:53.574Z,89.00
2019-03-24T01:17:23.981Z,88.90
2019-03-24T01:19:54.654Z,89.00
2019-03-24T01:22:25.019Z,89.30
2019-03-24T01:24:55.341Z,90.20
2019-03-24T01:27:25.731Z,90.00
2019-03-24T01:29:56.221Z,90.10
2019-03-24T01:32:26.583Z,90.20
2019-03-24T01:34:58.051Z,90.50
2019-03-24T01:37:28.786Z,91.60
2019-03-24T01:40:00.339Z,91.60
2019-03-24T01:42:30.772Z,92.00
2019-03-24T01:45:01.059Z,91.60
2019-03-24T01:47:31.450Z,91.40
2019-03-24T01:50:01.886Z,91.40
2019-03-24T01:52:32.353Z,91.30
2019-03-24T01:55:02.848Z,91.30
2019-03-24T01:57:33.273Z,91.10
2019-03-24T02:00:03.768Z,90.80
2019-03-24T02:02:35.206Z,90.70
2019-03-24T02:05:05.803Z,90.70
2019-03-24T02:07:36.211Z,90.60
2019-03-24T02:10:07.053Z,91.00
2019-03-24T02:12:37.517Z,91.80
2019-03-24T02:15:10.101Z,92.30
2019-03-24T02:17:40.914Z,92.80
2019-03-24T02:20:11.436Z,92.70
2019-03-24T02:22:41.827Z,92.90
2019-03-24T02:25:12.702Z,92.40
2019-03-24T02:27:43.299Z,91.70
2019-03-24T02:30:14.059Z,91.90
2019-03-24T02:32:44.742Z,91.50
2019-03-24T02:35:15.187Z,91.30
2019-03-24T02:37:45.621Z,91.60
2019-03-24T02:40:16.062Z,91.10
2019-03-24T02:42:46.460Z,91.10
2019-03-24T02:45:16.910Z,91.10
2019-03-24T02:47:47.295Z,91.00
2019-03-24T02:50:17.906Z,91.20
2019-03-24T02:52:48.281Z,91.20
2019-03-24T02:55:18.934Z,91.10
2019-03-24T02:57:49.320Z,91.00
2019-03-24T03:00:19.813Z,91.00
2019-03-24T03:02:50.226Z,91.00
2019-03-24T03:05:20.616Z,90.70
2019-03-24T03:07:51.181Z,90.70
2019-03-24T03:10:21.707Z,90.90
2019-03-24T03:12:52.185Z,90.80
2019-03-24T03:15:22.643Z,91.00
2019-03-24T03:17:53.176Z,91.10
2019-03-24T03:20:23.639Z,91.50
2019-03-24T03:22:54.363Z,91.20
2019-03-24T03:25:24.748Z,91.40
2019-03-24T03:27:55.376Z,91.20
2019-03-24T03:30:25.810Z,91.60
2019-03-24T03:32:56.210Z,91.50
2019-03-24T03:35:26.589Z,91.20
2019-03-24T03:37:57.077Z,91.00
2019-03-24T03:40:27.896Z,91.10
2019-03-24T03:42:58.306Z,91.40
2019-03-24T03:45:29.507Z,91.70
2019-03-24T03:47:59.940Z,92.00
2019-03-24T03:50:30.464Z,92.30
2019-03-24T03:53:00.975Z,93.00
2019-03-24T03:55:31.627Z,93.30
2019-03-24T03:58:01.890Z,94.00
2019-03-24T04:00:34.555Z,94.20
2019-03-24T04:03:05.711Z,94.10
2019-03-24T04:05:36.217Z,94.20
2019-03-24T04:08:06.720Z,94.40
2019-03-24T04:10:37.250Z,94.60
2019-03-24T04:13:07.739Z,94.20
2019-03-24T04:15:38.599Z,94.20
2019-03-24T04:18:09.480Z,93.90
2019-03-24T04:20:40.479Z,93.40
2019-03-24T04:23:10.841Z,93.10
2019-03-24T04:25:41.451Z,93.00
2019-03-24T04:28:11.893Z,93.00
2019-03-24T04:30:42.267Z,93.30
2019-03-24T04:33:12.621Z,93.00
2019-03-24T04:35:45.014Z,93.10
2019-03-24T04:38:15.339Z,93.10
2019-03-24T04:40:45.718Z,93.10
2019-03-24T04:43:16.030Z,93.10
2019-03-24T04:45:46.769Z,92.90
2019-03-24T04:48:17.090Z,92.90
2019-03-24T04:50:47.545Z,92.80
2019-03-24T04:53:20.630Z,92.90
2019-03-24T04:55:50.429Z,92.90
2019-03-24T04:58:20.697Z,92.70
2019-03-24T05:00:51.161Z,93.00
2019-03-24T05:03:21.467Z,92.50
2019-03-24T05:05:52.950Z,92.60
2019-03-24T05:08:23.911Z,92.70
2019-03-24T05:10:54.405Z,92.40
2019-03-24T05:13:24.914Z,92.30
2019-03-24T05:15:55.300Z,92.40
2019-03-24T05:18:25.682Z,92.90
2019-03-24T05:20:56.185Z,93.30
2019-03-24T05:23:26.866Z,93.60
2019-03-24T05:25:57.498Z,93.70
2019-03-24T05:28:28.906Z,93.00
2019-03-24T05:30:59.264Z,93.00
2019-03-24T05:33:29.578Z,93.40
2019-03-24T05:35:59.858Z,93.30
2019-03-24T05:38:30.440Z,93.20
2019-03-24T05:41:00.830Z,93.10
2019-03-24T05:43:31.686Z,92.80
2019-03-24T05:46:02.120Z,92.40
2019-03-24T05:48:32.435Z,92.40
2019-03-24T05:51:02.821Z,93.10
2019-03-24T05:53:33.175Z,93.50
2019-03-24T05:56:04.049Z,93.50
2019-03-24T05:58:34.383Z,93.00
2019-03-24T06:01:04.872Z,93.00
2019-03-24T06:03:35.159Z,93.20
2019-03-24T06:06:05.746Z,93.60
2019-03-24T06:08:36.014Z,93.90
2019-03-24T06:11:06.842Z,94.00
2019-03-24T06:13:37.365Z,94.10
2019-03-24T06:16:07.726Z,93.90
2019-03-24T06:18:39.245Z,94.00
2019-03-24T06:21:09.965Z,93.90
2019-03-24T06:23:40.598Z,93.90
2019-03-24T06:26:11.002Z,94.10
2019-03-24T06:28:41.446Z,93.70
2019-03-24T06:31:11.854Z,93.20
2019-03-24T06:33:42.139Z,93.60
2019-03-24T06:36:12.487Z,93.50
2019-03-24T06:38:42.908Z,93.50
2019-03-24T06:41:13.418Z,93.50
2019-03-24T06:43:43.802Z,93.60
2019-03-24T06:46:15.043Z,94.00
2019-03-24T06:48:45.526Z,93.90
2019-03-24T06:51:15.992Z,93.80
2019-03-24T06:53:46.954Z,93.50
2019-03-24T06:56:17.434Z,93.30
2019-03-24T06:58:48.142Z,93.10
2019-03-24T07:01:18.527Z,93.00
2019-03-24T07:03:48.951Z,93.00
2019-03-24T07:06:19.327Z,93.00
2019-03-24T07:08:49.757Z,93.20
2019-03-24T07:11:21.162Z,92.70
2019-03-24T07:13:51.687Z,91.60
2019-03-24T07:16:22.127Z,91.10
2019-03-24T07:18:52.426Z,91.10
2019-03-24T07:21:22.832Z,91.80
2019-03-24T07:23:53.587Z,91.50
2019-03-24T07:26:23.957Z,91.70
2019-03-24T07:28:54.436Z,91.10
2019-03-24T07:31:24.850Z,91.00
2019-03-24T07:33:55.228Z,91.40
2019-03-24T07:36:25.588Z,90.50
2019-03-24T07:38:56.101Z,90.40
2019-03-24T07:41:26.489Z,89.40
2019-03-24T07:43:56.979Z,89.90
2019-03-24T07:46:27.360Z,89.20
2019-03-24T07:48:57.785Z,88.50
2019-03-24T07:51:28.458Z,88.70
2019-03-24T07:53:58.699Z,90.20
2019-03-24T07:56:29.071Z,89.30
2019-03-24T07:58:59.585Z,88.50
2019-03-24T08:01:30.067Z,87.20
2019-03-24T08:04:00.551Z,86.60
2019-03-24T08:06:33.531Z,85.50
2019-03-24T08:09:05.242Z,88.10
2019-03-24T08:11:35.820Z,85.40
2019-03-24T08:14:06.997Z,84.30
2019-03-24T08:16:38.291Z,83.90
2019-03-24T08:19:09.142Z,84.60
2019-03-24T08:21:39.609Z,83.30
2019-03-24T08:24:10.188Z,83.50
2019-03-24T08:26:41.016Z,84.00
2019-03-24T08:29:11.435Z,84.40
2019-03-24T08:31:43.095Z,82.00
2019-03-24T08:34:13.421Z,84.10
2019-03-24T08:36:43.783Z,83.30
2019-03-24T08:39:14.507Z,80.60
2019-03-24T08:41:44.834Z,79.70
2019-03-24T08:44:15.159Z,80.60
2019-03-24T08:46:47.167Z,79.30
2019-03-24T08:49:17.967Z,79.40
2019-03-24T08:51:48.302Z,78.10
2019-03-24T08:54:18.811Z,77.50
2019-03-24T08:56:49.215Z,76.70
2019-03-24T08:59:19.638Z,76.30
2019-03-24T09:01:51.072Z,77.20
2019-03-24T09:04:21.935Z,77.90
2019-03-24T09:06:53.011Z,75.30
2019-03-24T09:09:23.409Z,73.50
2019-03-24T09:11:54.290Z,73.40
2019-03-24T09:14:24.663Z,72.30
2019-03-24T09:16:55.110Z,73.00
2019-03-24T09:19:25.525Z,73.80
2019-03-24T09:21:56.229Z,71.80
2019-03-24T09:24:26.657Z,71.10
2019-03-24T09:26:57.054Z,72.30
2019-03-24T09:29:27.424Z,69.70
2019-03-24T09:31:57.734Z,71.00
2019-03-24T09:34:28.138Z,71.60
2019-03-24T09:36:58.469Z,71.20
2019-03-24T09:39:28.900Z,68.60
2019-03-24T09:41:59.334Z,67.20
2019-03-24T09:44:30.865Z,66.60
2019-03-24T09:47:01.166Z,67.50
2019-03-24T09:49:31.550Z,66.70
2019-03-24T09:52:02.075Z,67.10
2019-03-24T09:54:32.478Z,65.50
2019-03-24T09:57:02.816Z,63.90
2019-03-24T09:59:33.509Z,63.70
2019-03-24T10:02:03.990Z,64.50
2019-03-24T10:04:34.298Z,60.50
2019-03-24T10:07:04.638Z,60.70
2019-03-24T10:09:35.147Z,58.20
2019-03-24T10:12:05.692Z,57.60
2019-03-24T10:14:36.109Z,58.70
2019-03-24T10:17:06.453Z,61.00
2019-03-24T10:19:36.925Z,59.30
2019-03-24T10:22:07.311Z,60.70
2019-03-24T10:24:37.646Z,59.50
2019-03-24T10:27:08.095Z,55.60
2019-03-24T10:29:38.534Z,57.50
2019-03-24T10:32:08.945Z,56.50
2019-03-24T10:34:39.248Z,57.30
2019-03-24T10:37:09.838Z,55.90
2019-03-24T10:39:40.571Z,56.00
2019-03-24T10:42:12.064Z,54.80
2019-03-24T10:44:42.747Z,53.10
2019-03-24T10:47:13.127Z,52.30
2019-03-24T10:49:43.554Z,51.00
2019-03-24T10:52:14.131Z,50.00
2019-03-24T10:54:44.581Z,50.10
2019-03-24T10:57:15.094Z,47.60
2019-03-24T10:59:45.382Z,47.20
2019-03-24T11:02:15.942Z,43.00
2019-03-24T11:04:46.637Z,47.10
2019-03-24T11:07:16.962Z,45.10
2019-03-24T11:09:47.639Z,47.80
2019-03-24T11:12:18.990Z,47.10
2019-03-24T11:14:49.627Z,46.10
2019-03-24T11:17:20.019Z,45.50
2019-03-24T11:19:50.553Z,48.60
2019-03-24T11:22:20.866Z,47.20
2019-03-24T11:24:51.510Z,46.00
2019-03-24T11:27:21.865Z,46.00
2019-03-24T11:29:52.602Z,46.90
2019-03-24T11:32:23.278Z,45.20
2019-03-24T11:34:54.041Z,46.50
2019-03-24T11:37:25.755Z,46.20
2019-03-24T11:39:56.219Z,47.90
2019-03-24T11:42:26.675Z,46.70
2019-03-24T11:44:57.161Z,43.50
2019-03-24T11:47:27.571Z,43.60
2019-03-24T11:49:58.258Z,44.90
2019-03-24T11:52:29.682Z,46.50
2019-03-24T11:55:00.322Z,47.20
2019-03-24T11:57:31.270Z,47.90
2019-03-24T12:00:02.017Z,45.00
2019-03-24T12:02:32.771Z,44.50
2019-03-24T12:05:03.234Z,44.30
2019-03-24T12:07:33.838Z,44.70
2019-03-24T12:10:05.844Z,46.20
2019-03-24T12:12:36.214Z,44.60
2019-03-24T12:15:08.044Z,43.10
2019-03-24T12:17:38.653Z,44.20
2019-03-24T12:20:10.610Z,41.10
2019-03-24T12:22:42.547Z,41.00
2019-03-24T12:25:13.150Z,42.60
2019-03-24T12:27:43.675Z,41.90
2019-03-24T12:30:15.377Z,43.50
2019-03-24T12:32:45.910Z,43.10
2019-03-24T12:35:16.642Z,43.80
2019-03-24T12:37:47.339Z,43.50
2019-03-24T12:40:17.779Z,43.90
2019-03-24T12:42:48.413Z,41.10
2019-03-24T12:45:18.974Z,41.70
2019-03-24T12:47:49.467Z,42.00
2019-03-24T12:50:30.678Z,42.10
2019-03-24T12:52:52.428Z,43.80
2019-03-24T12:55:22.863Z,43.40
2019-03-24T12:57:53.269Z,42.60
2019-03-24T13:00:34.405Z,40.90
2019-03-24T13:03:05.102Z,38.60
2019-03-24T13:05:35.679Z,41.60
2019-03-24T13:08:13.294Z,41.30
2019-03-24T13:10:45.206Z,40.80
2019-03-24T13:13:15.815Z,42.50
2019-03-24T13:15:46.564Z,43.00
2019-03-24T13:18:17.615Z,44.00
2019-03-24T13:20:48.143Z,43.50
2019-03-24T13:23:18.698Z,43.70
2019-03-24T13:25:50.573Z,43.10
2019-03-24T13:28:21.251Z,46.80
2019-03-24T13:30:51.787Z,47.20
2019-03-24T13:33:22.534Z,48.50
2019-03-24T13:36:12.031Z,45.40
2019-03-24T13:38:43.542Z,45.60
2019-03-24T13:41:14.131Z,41.90
2019-03-24T13:43:44.791Z,41.50
2019-03-24T13:46:15.237Z,40.20
2019-03-24T13:48:45.737Z,40.90
2019-03-24T13:51:16.150Z,38.00
2019-03-24T13:53:46.577Z,37.90
2019-03-24T13:56:17.001Z,36.60
2019-03-24T13:58:47.415Z,35.60
2019-03-24T14:01:18.262Z,35.50
2019-03-24T14:03:48.618Z,36.30
2019-03-24T14:06:19.129Z,33.60
2019-03-24T14:08:49.932Z,33.50
2019-03-24T14:11:20.669Z,32.50
2019-03-24T14:13:51.451Z,33.10
2019-03-24T14:16:21.868Z,31.70
2019-03-24T14:18:52.697Z,32.40
2019-03-24T14:21:23.312Z,33.60
2019-03-24T14:23:54.083Z,32.90
2019-03-24T14:26:25.268Z,28.40
2019-03-24T14:28:55.784Z,28.60
2019-03-24T14:31:26.377Z,32.00
2019-03-24T14:33:56.655Z,31.70
2019-03-24T14:36:26.969Z,31.30
2019-03-24T14:38:58.481Z,34.50
2019-03-24T14:41:28.891Z,36.00
2019-03-24T14:43:59.426Z,39.10
2019-03-24T14:46:30.060Z,39.20
2019-03-24T14:49:00.463Z,37.50
2019-03-24T14:51:30.771Z,36.00
2019-03-24T14:54:01.488Z,35.60
2019-03-24T14:56:34.021Z,36.00
2019-03-24T14:59:04.129Z,37.60
2019-03-24T15:01:34.505Z,36.50
2019-03-24T15:04:04.967Z,37.40
2019-03-24T15:06:35.482Z,37.20
2019-03-24T15:09:07.604Z,38.60
2019-03-24T15:11:38.076Z,40.00
2019-03-24T15:14:08.812Z,38.50
2019-03-24T15:16:39.599Z,38.40
2019-03-24T15:19:10.241Z,39.60
2019-03-24T15:21:40.731Z,38.30
2019-03-24T15:24:11.139Z,39.70
2019-03-24T15:26:41.671Z,40.90
2019-03-24T15:29:12.209Z,40.40
2019-03-24T15:31:42.623Z,40.00
2019-03-24T15:34:13.140Z,39.50
2019-03-24T15:36:43.859Z,38.30
2019-03-24T15:39:14.323Z,38.60
2019-03-24T15:41:44.661Z,38.60
2019-03-24T15:44:15.911Z,38.30
2019-03-24T15:46:46.326Z,39.20
2019-03-24T15:49:16.726Z,37.90
2019-03-24T15:51:47.309Z,39.10
2019-03-24T15:54:17.706Z,38.60
2019-03-24T15:56:48.079Z,37.20
2019-03-24T15:59:18.482Z,37.40
2019-03-24T16:01:48.976Z,38.30
2019-03-24T16:04:19.347Z,41.10
2019-03-24T16:06:49.702Z,40.10
2019-03-24T16:09:20.003Z,39.20
2019-03-24T16:11:50.624Z,38.60
2019-03-24T16:14:21.254Z,38.60
2019-03-24T16:16:51.643Z,40.70
2019-03-24T16:19:22.129Z,40.30
2019-03-24T16:21:52.856Z,41.20
2019-03-24T16:24:24.245Z,42.20
2019-03-24T16:26:54.902Z,42.20
2019-03-24T16:29:25.676Z,43.50
2019-03-24T16:31:56.087Z,45.80
2019-03-24T16:34:26.837Z,45.60
2019-03-24T16:36:57.324Z,46.70
2019-03-24T16:39:28.283Z,47.80
2019-03-24T16:41:58.769Z,46.80
2019-03-24T16:44:29.041Z,46.90
2019-03-24T16:46:59.502Z,47.40
2019-03-24T16:49:30.337Z,46.10
2019-03-24T16:52:01.036Z,47.70
2019-03-24T16:54:32.490Z,47.30
2019-03-24T16:57:03.224Z,45.50
2019-03-24T16:59:33.640Z,46.60
2019-03-24T17:02:04.194Z,46.30
2019-03-24T17:04:35.071Z,45.60
2019-03-24T17:07:05.721Z,46.50
2019-03-24T17:09:36.216Z,47.10
2019-03-24T17:12:06.759Z,49.60
2019-03-24T17:14:37.613Z,48.70
2019-03-24T17:17:08.124Z,50.70
2019-03-24T17:19:39.065Z,50.20
2019-03-24T17:22:09.537Z,51.30
2019-03-24T17:24:41.155Z,52.30
2019-03-24T17:27:11.722Z,51.60
2019-03-24T17:29:42.275Z,53.40
2019-03-24T17:32:12.709Z,54.50
2019-03-24T17:34:43.483Z,52.90
2019-03-24T17:37:13.735Z,53.60
2019-03-24T17:39:44.167Z,55.60
2019-03-24T17:42:14.612Z,55.60
2019-03-24T17:44:45.079Z,57.30
2019-03-24T17:47:15.794Z,57.60
2019-03-24T17:49:46.217Z,57.80
2019-03-24T17:52:16.654Z,58.50
2019-03-24T17:54:47.081Z,58.90
2019-03-24T17:57:17.521Z,58.60
2019-03-24T17:59:48.000Z,57.90
2019-03-24T18:02:18.527Z,59.30
2019-03-24T18:04:49.106Z,58.90
2019-03-24T18:07:19.899Z,58.00
2019-03-24T18:09:50.415Z,58.60
2019-03-24T18:12:20.971Z,59.90
2019-03-24T18:14:51.652Z,61.20
2019-03-24T18:17:22.165Z,61.50
2019-03-24T18:19:52.627Z,61.50
2019-03-24T18:22:24.113Z,63.60
2019-03-24T18:24:54.458Z,63.60
2019-03-24T18:27:25.263Z,65.70
2019-03-24T18:29:55.906Z,64.00
2019-03-24T18:32:26.585Z,65.80
2019-03-24T18:34:56.997Z,66.20
2019-03-24T18:37:27.454Z,67.10
2019-03-24T18:39:58.293Z,67.50
2019-03-24T18:42:28.702Z,67.60
2019-03-24T18:45:00.120Z,67.70
2019-03-24T18:47:30.922Z,67.50
2019-03-24T18:50:01.284Z,68.40
2019-03-24T18:52:31.826Z,68.70
2019-03-24T18:55:02.251Z,68.70
2019-03-24T18:57:32.818Z,68.70
2019-03-24T19:00:03.385Z,69.10
2019-03-24T19:02:34.163Z,67.80
2019-03-24T19:05:05.490Z,68.20
2019-03-24T19:07:35.957Z,68.00
2019-03-24T19:10:06.787Z,67.20
2019-03-24T19:12:37.281Z,67.80
2019-03-24T19:15:08.886Z,68.00
2019-03-24T19:17:39.392Z,68.00
2019-03-24T19:20:10.179Z,67.90
2019-03-24T19:22:40.580Z,67.30
2019-03-24T19:25:11.739Z,68.80
2019-03-24T19:27:42.572Z,67.70
2019-03-24T19:30:14.175Z,68.20
2019-03-24T19:32:44.763Z,68.80
2019-03-24T19:35:15.703Z,68.70
2019-03-24T19:37:47.227Z,69.40
2019-03-24T19:40:28.465Z,69.50
2019-03-24T19:42:59.102Z,69.60
2019-03-24T19:45:30.587Z,69.30
2019-03-24T19:48:01.059Z,69.90
2019-03-24T19:50:32.644Z,69.60
2019-03-24T19:53:03.781Z,70.80
2019-03-24T19:55:34.131Z,70.90
2019-03-24T19:58:05.047Z,71.50
2019-03-24T20:00:35.525Z,71.30
2019-03-24T20:03:06.336Z,72.00
2019-03-24T20:05:36.799Z,73.20
2019-03-24T20:08:07.314Z,72.50
2019-03-24T20:10:37.843Z,72.60
2019-03-24T20:13:08.468Z,72.70
2019-03-24T20:15:38.903Z,72.40
2019-03-24T20:18:09.249Z,72.40
2019-03-24T20:20:39.612Z,72.60
2019-03-24T20:23:10.589Z,72.80
2019-03-24T20:25:43.764Z,72.30
2019-03-24T20:28:15.076Z,73.00
2019-03-24T20:30:45.694Z,73.10
2019-03-24T20:33:17.392Z,73.40
2019-03-24T20:35:47.791Z,73.30
2019-03-24T20:38:18.394Z,74.00
2019-03-24T20:40:48.830Z,73.70
2019-03-24T20:43:19.139Z,73.90
2019-03-24T20:45:49.415Z,73.80
2019-03-24T20:48:20.026Z,74.00
2019-03-24T20:50:50.347Z,74.20
2019-03-24T20:53:22.039Z,74.40
2019-03-24T20:55:52.496Z,74.00
2019-03-24T20:58:23.012Z,74.30
2019-03-24T21:00:53.414Z,74.40
2019-03-24T21:03:23.824Z,74.60
2019-03-24T21:05:54.273Z,74.50
2019-03-24T21:08:24.739Z,75.10
2019-03-24T21:10:55.146Z,75.00
2019-03-24T21:13:25.643Z,75.10
2019-03-24T21:15:56.415Z,74.50
2019-03-24T21:18:26.800Z,75.00
2019-03-24T21:20:57.227Z,74.70
2019-03-24T21:23:29.669Z,75.00
2019-03-24T21:26:00.238Z,75.20
2019-03-24T21:28:30.608Z,75.30
2019-03-24T21:31:01.836Z,76.20
2019-03-24T21:33:32.158Z,75.60
2019-03-24T21:36:02.540Z,76.00
2019-03-24T21:38:33.449Z,76.30
2019-03-24T21:41:04.126Z,77.10
2019-03-24T21:43:34.577Z,77.10
2019-03-24T21:46:05.207Z,77.40
2019-03-24T21:48:35.792Z,78.70
2019-03-24T21:51:06.610Z,77.50
2019-03-24T21:53:40.939Z,77.50
2019-03-24T21:56:09.789Z,77.80
2019-03-24T21:58:41.173Z,78.00
2019-03-24T22:01:11.999Z,77.90
2019-03-24T22:03:42.565Z,78.20
2019-03-24T22:06:13.065Z,78.40
2019-03-24T22:08:43.526Z,78.00
2019-03-24T22:11:14.304Z,78.70
2019-03-24T22:13:45.754Z,78.80
2019-03-24T22:16:16.150Z,78.70
2019-03-24T22:18:46.890Z,79.20
2019-03-24T22:21:17.296Z,79.50
2019-03-24T22:23:52.105Z,79.10
2019-03-24T22:26:19.868Z,79.50
2019-03-24T22:28:50.424Z,79.70
2019-03-24T22:31:20.794Z,79.80
2019-03-24T22:33:51.249Z,79.70
2019-03-24T22:36:21.735Z,79.70
2019-03-24T22:38:52.149Z,79.90
2019-03-24T22:41:22.582Z,80.00
2019-03-24T22:43:52.951Z,80.40
2019-03-24T22:46:23.494Z,80.30
2019-03-24T22:48:53.934Z,81.10
2019-03-24T22:51:24.284Z,80.90
2019-03-24T22:54:02.968Z,81.00
2019-03-24T22:56:26.922Z,81.50
2019-03-24T22:58:57.407Z,81.30
2019-03-24T23:01:27.879Z,81.40
2019-03-24T23:03:58.662Z,81.40
2019-03-24T23:06:29.132Z,82.00
2019-03-24T23:08:59.625Z,82.20
2019-03-24T23:11:30.110Z,82.40
2019-03-24T23:14:00.531Z,82.30
2019-03-24T23:16:31.015Z,82.20
2019-03-24T23:19:01.460Z,82.70
2019-03-24T23:21:32.183Z,83.30
2019-03-24T23:24:02.447Z,83.70
2019-03-24T23:26:32.896Z,83.60
2019-03-24T23:29:03.473Z,84.00
2019-03-24T23:31:34.204Z,83.80
2019-03-24T23:34:04.946Z,84.30
2019-03-24T23:36:35.632Z,83.90
2019-03-24T23:39:07.470Z,84.30
2019-03-24T23:41:38.166Z,84.20
2019-03-24T23:44:08.598Z,83.80
2019-03-24T23:46:39.183Z,84.10
2019-03-24T23:49:09.918Z,83.80
2019-03-24T23:51:41.373Z,84.30
2019-03-24T23:54:11.991Z,83.40
2019-03-24T23:56:42.489Z,83.60
2019-03-24T23:59:12.833Z,82.80
